sensor_id;sensor_type;location;lat;lon;timestamp;P1;durP1;ratioP1;P2;durP2;ratioP2
7957;SDS011;4024;52.172;5.378;2022-09-01T00:02:16;4.87;;;2.53;;
7957;SDS011;4024;52.172;5.378;2022-09-01T00:04:42;4.70;;;3.10;;
7957;SDS011;4024;52.172;5.378;2022-09-01T00:07:09;3.33;;;2.60;;
7957;SDS011;4024;52.172;5.378;2022-09-01T00:09:36;4.30;;;2.90;;
7957;SDS011;4024;52.172;5.378;2022-09-01T00:12:02;3.43;;;2.87;;
7957;SDS011;4024;52.172;5.378;2022-09-01T00:14:32;2.80;;;2.60;;
7957;SDS011;4024;52.172;5.378;2022-09-01T00:17:01;3.53;;;2.70;;
7957;SDS011;4024;52.172;5.378;2022-09-01T00:19:29;5.77;;;3.40;;
7957;SDS011;4024;52.172;5.378;2022-09-01T00:21:57;4.10;;;2.80;;
7957;SDS011;4024;52.172;5.378;2022-09-01T00:24:25;5.13;;;2.60;;
7957;SDS011;4024;52.172;5.378;2022-09-01T00:26:51;6.87;;;2.70;;
7957;SDS011;4024;52.172;5.378;2022-09-01T00:29:18;5.57;;;3.07;;
7957;SDS011;4024;52.172;5.378;2022-09-01T00:31:43;4.00;;;2.70;;
7957;SDS011;4024;52.172;5.378;2022-09-01T00:34:10;3.40;;;2.30;;
7957;SDS011;4024;52.172;5.378;2022-09-01T00:36:35;5.73;;;2.70;;
7957;SDS011;4024;52.172;5.378;2022-09-01T00:39:02;3.57;;;2.80;;
7957;SDS011;4024;52.172;5.378;2022-09-01T00:41:31;3.87;;;2.80;;
7957;SDS011;4024;52.172;5.378;2022-09-01T00:43:59;3.73;;;2.80;;
7957;SDS011;4024;52.172;5.378;2022-09-01T00:49:42;4.73;;;2.87;;
7957;SDS011;4024;52.172;5.378;2022-09-01T00:51:46;3.33;;;3.00;;
7957;SDS011;4024;52.172;5.378;2022-09-01T00:54:19;5.87;;;2.70;;
7957;SDS011;4024;52.172;5.378;2022-09-01T00:56:48;3.87;;;2.80;;
7957;SDS011;4024;52.172;5.378;2022-09-01T00:59:15;3.17;;;2.70;;
7957;SDS011;4024;52.172;5.378;2022-09-01T01:01:42;5.70;;;2.80;;
7957;SDS011;4024;52.172;5.378;2022-09-01T01:04:08;3.93;;;3.03;;
7957;SDS011;4024;52.172;5.378;2022-09-01T01:06:45;4.33;;;2.97;;
7957;SDS011;4024;52.172;5.378;2022-09-01T01:09:22;4.63;;;2.97;;
7957;SDS011;4024;52.172;5.378;2022-09-01T01:11:50;4.73;;;3.13;;
7957;SDS011;4024;52.172;5.378;2022-09-01T01:14:17;5.80;;;2.90;;
7957;SDS011;4024;52.172;5.378;2022-09-01T01:16:45;3.13;;;2.83;;
7957;SDS011;4024;52.172;5.378;2022-09-01T01:19:21;4.00;;;2.80;;
7957;SDS011;4024;52.172;5.378;2022-09-01T01:22:07;3.50;;;2.57;;
7957;SDS011;4024;52.172;5.378;2022-09-01T01:24:56;5.67;;;3.10;;
7957;SDS011;4024;52.172;5.378;2022-09-01T01:27:22;4.70;;;2.87;;
7957;SDS011;4024;52.172;5.378;2022-09-01T01:29:48;4.93;;;2.80;;
7957;SDS011;4024;52.172;5.378;2022-09-01T01:32:17;3.10;;;2.53;;
7957;SDS011;4024;52.172;5.378;2022-09-01T01:34:43;4.60;;;2.60;;
7957;SDS011;4024;52.172;5.378;2022-09-01T01:37:10;8.97;;;2.80;;
7957;SDS011;4024;52.172;5.378;2022-09-01T01:39:38;3.53;;;2.73;;
7957;SDS011;4024;52.172;5.378;2022-09-01T01:42:07;2.80;;;2.60;;
7957;SDS011;4024;52.172;5.378;2022-09-01T01:44:34;3.07;;;2.77;;
7957;SDS011;4024;52.172;5.378;2022-09-01T01:47:02;3.07;;;2.60;;
7957;SDS011;4024;52.172;5.378;2022-09-01T01:49:35;3.17;;;2.70;;
7957;SDS011;4024;52.172;5.378;2022-09-01T01:52:00;3.17;;;2.33;;
7957;SDS011;4024;52.172;5.378;2022-09-01T01:54:28;4.67;;;2.73;;
7957;SDS011;4024;52.172;5.378;2022-09-01T01:56:55;4.30;;;2.90;;
7957;SDS011;4024;52.172;5.378;2022-09-01T01:59:22;5.07;;;2.77;;
7957;SDS011;4024;52.172;5.378;2022-09-01T02:01:48;5.53;;;2.60;;
7957;SDS011;4024;52.172;5.378;2022-09-01T02:04:15;3.17;;;2.43;;
7957;SDS011;4024;52.172;5.378;2022-09-01T02:06:44;3.77;;;2.53;;
7957;SDS011;4024;52.172;5.378;2022-09-01T02:09:12;3.60;;;2.97;;
7957;SDS011;4024;52.172;5.378;2022-09-01T02:11:40;4.20;;;3.00;;
7957;SDS011;4024;52.172;5.378;2022-09-01T02:14:06;3.93;;;2.63;;
7957;SDS011;4024;52.172;5.378;2022-09-01T02:16:33;3.50;;;2.40;;
7957;SDS011;4024;52.172;5.378;2022-09-01T02:19:00;3.60;;;2.60;;
7957;SDS011;4024;52.172;5.378;2022-09-01T02:21:28;3.23;;;2.57;;
7957;SDS011;4024;52.172;5.378;2022-09-01T02:24:01;3.23;;;2.70;;
7957;SDS011;4024;52.172;5.378;2022-09-01T02:26:30;3.77;;;2.70;;
7957;SDS011;4024;52.172;5.378;2022-09-01T02:28:59;6.57;;;2.73;;
7957;SDS011;4024;52.172;5.378;2022-09-01T02:31:29;4.77;;;2.80;;
7957;SDS011;4024;52.172;5.378;2022-09-01T02:33:56;4.40;;;3.00;;
7957;SDS011;4024;52.172;5.378;2022-09-01T02:36:22;2.90;;;2.60;;
7957;SDS011;4024;52.172;5.378;2022-09-01T02:38:50;8.83;;;2.73;;
7957;SDS011;4024;52.172;5.378;2022-09-01T02:41:17;5.20;;;2.83;;
7957;SDS011;4024;52.172;5.378;2022-09-01T02:43:44;4.70;;;2.83;;
7957;SDS011;4024;52.172;5.378;2022-09-01T02:46:10;2.40;;;2.20;;
7957;SDS011;4024;52.172;5.378;2022-09-01T02:48:37;3.03;;;2.70;;
7957;SDS011;4024;52.172;5.378;2022-09-01T02:51:07;4.00;;;2.67;;
7957;SDS011;4024;52.172;5.378;2022-09-01T02:53:35;3.30;;;2.83;;
7957;SDS011;4024;52.172;5.378;2022-09-01T02:56:03;6.50;;;2.83;;
7957;SDS011;4024;52.172;5.378;2022-09-01T02:58:33;4.80;;;2.70;;
7957;SDS011;4024;52.172;5.378;2022-09-01T03:03:42;4.10;;;2.57;;
7957;SDS011;4024;52.172;5.378;2022-09-01T03:06:08;2.50;;;2.30;;
7957;SDS011;4024;52.172;5.378;2022-09-01T03:08:36;3.67;;;2.90;;
7957;SDS011;4024;52.172;5.378;2022-09-01T03:11:04;4.53;;;2.80;;
7957;SDS011;4024;52.172;5.378;2022-09-01T03:13:35;4.30;;;2.60;;
7957;SDS011;4024;52.172;5.378;2022-09-01T03:16:02;5.67;;;2.93;;
7957;SDS011;4024;52.172;5.378;2022-09-01T03:18:29;3.30;;;3.00;;
7957;SDS011;4024;52.172;5.378;2022-09-01T03:20:55;4.27;;;2.50;;
7957;SDS011;4024;52.172;5.378;2022-09-01T03:23:21;3.50;;;2.90;;
7957;SDS011;4024;52.172;5.378;2022-09-01T03:25:49;5.67;;;2.97;;
7957;SDS011;4024;52.172;5.378;2022-09-01T03:28:16;3.43;;;2.90;;
7957;SDS011;4024;52.172;5.378;2022-09-01T03:30:47;4.27;;;2.30;;
7957;SDS011;4024;52.172;5.378;2022-09-01T03:33:17;2.60;;;2.40;;
7957;SDS011;4024;52.172;5.378;2022-09-01T03:35:44;4.00;;;2.70;;
7957;SDS011;4024;52.172;5.378;2022-09-01T03:38:10;3.17;;;2.30;;
7957;SDS011;4024;52.172;5.378;2022-09-01T03:40:37;7.37;;;3.10;;
7957;SDS011;4024;52.172;5.378;2022-09-01T03:43:05;3.70;;;2.37;;
7957;SDS011;4024;52.172;5.378;2022-09-01T03:45:38;3.90;;;2.40;;
7957;SDS011;4024;52.172;5.378;2022-09-01T03:48:05;2.83;;;2.53;;
7957;SDS011;4024;52.172;5.378;2022-09-01T03:50:34;3.53;;;2.53;;
7957;SDS011;4024;52.172;5.378;2022-09-01T03:53:04;6.13;;;2.70;;
7957;SDS011;4024;52.172;5.378;2022-09-01T03:55:31;3.00;;;2.43;;
7957;SDS011;4024;52.172;5.378;2022-09-01T03:58:00;3.90;;;2.40;;
7957;SDS011;4024;52.172;5.378;2022-09-01T04:00:32;2.93;;;2.47;;
7957;SDS011;4024;52.172;5.378;2022-09-01T04:03:00;2.80;;;2.47;;
7957;SDS011;4024;52.172;5.378;2022-09-01T04:05:28;4.73;;;2.90;;
7957;SDS011;4024;52.172;5.378;2022-09-01T04:07:56;3.30;;;2.47;;
7957;SDS011;4024;52.172;5.378;2022-09-01T04:10:25;4.97;;;3.00;;
7957;SDS011;4024;52.172;5.378;2022-09-01T04:12:51;5.13;;;2.67;;
7957;SDS011;4024;52.172;5.378;2022-09-01T04:15:20;3.80;;;2.40;;
7957;SDS011;4024;52.172;5.378;2022-09-01T04:17:46;2.77;;;2.57;;
7957;SDS011;4024;52.172;5.378;2022-09-01T04:20:31;2.93;;;2.40;;
7957;SDS011;4024;52.172;5.378;2022-09-01T04:23:04;7.00;;;2.90;;
7957;SDS011;4024;52.172;5.378;2022-09-01T04:25:34;3.93;;;2.43;;
7957;SDS011;4024;52.172;5.378;2022-09-01T04:28:03;4.13;;;2.60;;
7957;SDS011;4024;52.172;5.378;2022-09-01T04:30:39;4.67;;;2.67;;
7957;SDS011;4024;52.172;5.378;2022-09-01T04:33:06;4.37;;;2.47;;
7957;SDS011;4024;52.172;5.378;2022-09-01T04:35:36;3.20;;;2.90;;
7957;SDS011;4024;52.172;5.378;2022-09-01T04:38:03;3.83;;;2.80;;
7957;SDS011;4024;52.172;5.378;2022-09-01T04:40:29;3.20;;;2.90;;
7957;SDS011;4024;52.172;5.378;2022-09-01T04:42:55;5.20;;;2.80;;
7957;SDS011;4024;52.172;5.378;2022-09-01T04:45:20;3.63;;;2.70;;
7957;SDS011;4024;52.172;5.378;2022-09-01T04:47:51;3.43;;;2.60;;
7957;SDS011;4024;52.172;5.378;2022-09-01T04:50:17;3.53;;;2.60;;
7957;SDS011;4024;52.172;5.378;2022-09-01T04:52:43;2.90;;;2.63;;
7957;SDS011;4024;52.172;5.378;2022-09-01T04:55:10;2.80;;;2.53;;
7957;SDS011;4024;52.172;5.378;2022-09-01T04:57:43;4.23;;;2.83;;
7957;SDS011;4024;52.172;5.378;2022-09-01T05:00:17;3.60;;;2.60;;
7957;SDS011;4024;52.172;5.378;2022-09-01T05:02:52;3.83;;;2.47;;
7957;SDS011;4024;52.172;5.378;2022-09-01T05:05:27;4.10;;;3.07;;
7957;SDS011;4024;52.172;5.378;2022-09-01T05:08:02;4.27;;;2.93;;
7957;SDS011;4024;52.172;5.378;2022-09-01T05:10:27;2.67;;;2.47;;
7957;SDS011;4024;52.172;5.378;2022-09-01T05:12:54;2.77;;;2.50;;
7957;SDS011;4024;52.172;5.378;2022-09-01T05:15:21;3.37;;;2.47;;
7957;SDS011;4024;52.172;5.378;2022-09-01T05:17:48;4.13;;;3.10;;
7957;SDS011;4024;52.172;5.378;2022-09-01T05:20:13;4.47;;;2.70;;
7957;SDS011;4024;52.172;5.378;2022-09-01T05:22:40;6.40;;;2.80;;
7957;SDS011;4024;52.172;5.378;2022-09-01T05:25:06;3.20;;;2.67;;
7957;SDS011;4024;52.172;5.378;2022-09-01T05:27:38;4.10;;;2.60;;
7957;SDS011;4024;52.172;5.378;2022-09-01T05:30:13;3.07;;;2.77;;
7957;SDS011;4024;52.172;5.378;2022-09-01T05:32:41;4.10;;;2.80;;
7957;SDS011;4024;52.172;5.378;2022-09-01T05:35:09;5.27;;;2.70;;
7957;SDS011;4024;52.172;5.378;2022-09-01T05:37:35;6.07;;;3.23;;
7957;SDS011;4024;52.172;5.378;2022-09-01T05:40:05;3.33;;;2.87;;
7957;SDS011;4024;52.172;5.378;2022-09-01T05:42:33;3.23;;;2.70;;
7957;SDS011;4024;52.172;5.378;2022-09-01T05:45:02;2.93;;;2.60;;
7957;SDS011;4024;52.172;5.378;2022-09-01T05:47:28;5.10;;;2.63;;
7957;SDS011;4024;52.172;5.378;2022-09-01T05:49:55;3.20;;;2.70;;
7957;SDS011;4024;52.172;5.378;2022-09-01T05:52:22;3.10;;;2.80;;
7957;SDS011;4024;52.172;5.378;2022-09-01T05:54:50;4.30;;;2.93;;
7957;SDS011;4024;52.172;5.378;2022-09-01T05:57:16;4.70;;;2.70;;
7957;SDS011;4024;52.172;5.378;2022-09-01T05:59:43;2.93;;;2.60;;
7957;SDS011;4024;52.172;5.378;2022-09-01T06:02:17;5.83;;;2.67;;
7957;SDS011;4024;52.172;5.378;2022-09-01T06:04:46;4.03;;;2.70;;
7957;SDS011;4024;52.172;5.378;2022-09-01T06:07:13;3.47;;;2.50;;
7957;SDS011;4024;52.172;5.378;2022-09-01T06:09:43;6.07;;;2.37;;
7957;SDS011;4024;52.172;5.378;2022-09-01T06:12:10;4.10;;;3.00;;
7957;SDS011;4024;52.172;5.378;2022-09-01T06:14:41;3.83;;;2.67;;
7957;SDS011;4024;52.172;5.378;2022-09-01T06:17:08;4.87;;;2.50;;
7957;SDS011;4024;52.172;5.378;2022-09-01T06:19:36;4.93;;;2.63;;
7957;SDS011;4024;52.172;5.378;2022-09-01T06:22:04;3.50;;;2.43;;
7957;SDS011;4024;52.172;5.378;2022-09-01T06:24:30;5.30;;;2.67;;
7957;SDS011;4024;52.172;5.378;2022-09-01T06:26:56;2.80;;;2.33;;
7957;SDS011;4024;52.172;5.378;2022-09-01T06:29:22;3.63;;;2.40;;
7957;SDS011;4024;52.172;5.378;2022-09-01T06:31:48;4.73;;;3.30;;
7957;SDS011;4024;52.172;5.378;2022-09-01T06:34:16;2.87;;;2.33;;
7957;SDS011;4024;52.172;5.378;2022-09-01T06:36:43;2.67;;;2.43;;
7957;SDS011;4024;52.172;5.378;2022-09-01T06:39:12;4.33;;;2.40;;
7957;SDS011;4024;52.172;5.378;2022-09-01T06:41:44;4.13;;;2.60;;
7957;SDS011;4024;52.172;5.378;2022-09-01T06:44:12;3.17;;;2.20;;
7957;SDS011;4024;52.172;5.378;2022-09-01T06:46:38;5.40;;;2.80;;
7957;SDS011;4024;52.172;5.378;2022-09-01T06:49:04;4.53;;;2.47;;
7957;SDS011;4024;52.172;5.378;2022-09-01T06:51:30;2.40;;;2.20;;
7957;SDS011;4024;52.172;5.378;2022-09-01T06:53:56;2.73;;;2.23;;
7957;SDS011;4024;52.172;5.378;2022-09-01T06:56:23;6.00;;;2.20;;
7957;SDS011;4024;52.172;5.378;2022-09-01T06:58:52;4.87;;;2.30;;
7957;SDS011;4024;52.172;5.378;2022-09-01T07:01:18;2.80;;;2.50;;
7957;SDS011;4024;52.172;5.378;2022-09-01T07:03:46;3.57;;;2.47;;
7957;SDS011;4024;52.172;5.378;2022-09-01T07:06:15;3.17;;;2.53;;
7957;SDS011;4024;52.172;5.378;2022-09-01T07:08:42;2.63;;;2.30;;
7957;SDS011;4024;52.172;5.378;2022-09-01T07:11:20;4.90;;;2.50;;
7957;SDS011;4024;52.172;5.378;2022-09-01T07:13:51;2.57;;;1.97;;
7957;SDS011;4024;52.172;5.378;2022-09-01T07:16:22;4.50;;;2.60;;
7957;SDS011;4024;52.172;5.378;2022-09-01T07:18:51;4.00;;;2.40;;
7957;SDS011;4024;52.172;5.378;2022-09-01T07:21:20;2.67;;;2.10;;
7957;SDS011;4024;52.172;5.378;2022-09-01T07:23:46;2.63;;;2.43;;
7957;SDS011;4024;52.172;5.378;2022-09-01T07:26:12;2.33;;;2.00;;
7957;SDS011;4024;52.172;5.378;2022-09-01T07:28:46;4.03;;;2.40;;
7957;SDS011;4024;52.172;5.378;2022-09-01T07:31:18;2.80;;;2.20;;
7957;SDS011;4024;52.172;5.378;2022-09-01T07:33:46;5.77;;;2.40;;
7957;SDS011;4024;52.172;5.378;2022-09-01T07:36:14;3.67;;;2.33;;
7957;SDS011;4024;52.172;5.378;2022-09-01T07:38:40;2.30;;;2.10;;
7957;SDS011;4024;52.172;5.378;2022-09-01T07:41:07;4.33;;;2.47;;
7957;SDS011;4024;52.172;5.378;2022-09-01T07:43:37;5.97;;;2.03;;
7957;SDS011;4024;52.172;5.378;2022-09-01T07:46:06;3.10;;;2.07;;
7957;SDS011;4024;52.172;5.378;2022-09-01T07:48:32;3.33;;;2.10;;
7957;SDS011;4024;52.172;5.378;2022-09-01T07:50:58;2.37;;;1.93;;
7957;SDS011;4024;52.172;5.378;2022-09-01T07:53:26;2.47;;;2.03;;
7957;SDS011;4024;52.172;5.378;2022-09-01T07:55:57;3.87;;;2.10;;
7957;SDS011;4024;52.172;5.378;2022-09-01T07:58:27;3.23;;;2.30;;
7957;SDS011;4024;52.172;5.378;2022-09-01T08:00:54;2.40;;;2.07;;
7957;SDS011;4024;52.172;5.378;2022-09-01T08:03:22;2.63;;;2.10;;
7957;SDS011;4024;52.172;5.378;2022-09-01T08:05:50;2.20;;;2.00;;
7957;SDS011;4024;52.172;5.378;2022-09-01T08:08:42;4.77;;;2.10;;
7957;SDS011;4024;52.172;5.378;2022-09-01T08:11:07;2.87;;;2.20;;
7957;SDS011;4024;52.172;5.378;2022-09-01T08:13:34;2.83;;;2.03;;
7957;SDS011;4024;52.172;5.378;2022-09-01T08:16:05;4.63;;;1.97;;
7957;SDS011;4024;52.172;5.378;2022-09-01T08:18:32;2.77;;;2.10;;
7957;SDS011;4024;52.172;5.378;2022-09-01T08:20:57;3.03;;;2.00;;
7957;SDS011;4024;52.172;5.378;2022-09-01T08:23:23;3.73;;;2.13;;
7957;SDS011;4024;52.172;5.378;2022-09-01T08:25:51;2.97;;;2.00;;
7957;SDS011;4024;52.172;5.378;2022-09-01T08:28:18;2.83;;;1.83;;
7957;SDS011;4024;52.172;5.378;2022-09-01T08:30:44;5.13;;;2.33;;
7957;SDS011;4024;52.172;5.378;2022-09-01T08:33:12;5.33;;;2.23;;
7957;SDS011;4024;52.172;5.378;2022-09-01T08:35:42;3.67;;;1.93;;
7957;SDS011;4024;52.172;5.378;2022-09-01T08:38:10;3.10;;;1.97;;
7957;SDS011;4024;52.172;5.378;2022-09-01T08:40:36;4.90;;;2.13;;
7957;SDS011;4024;52.172;5.378;2022-09-01T08:45:54;1.70;;;1.60;;
7957;SDS011;4024;52.172;5.378;2022-09-01T08:48:38;2.23;;;1.60;;
7957;SDS011;4024;52.172;5.378;2022-09-01T08:51:11;4.17;;;1.80;;
7957;SDS011;4024;52.172;5.378;2022-09-01T08:56:25;2.83;;;1.70;;
7957;SDS011;4024;52.172;5.378;2022-09-01T08:58:51;3.57;;;1.70;;
7957;SDS011;4024;52.172;5.378;2022-09-01T09:01:25;3.70;;;1.70;;
7957;SDS011;4024;52.172;5.378;2022-09-01T09:04:06;2.87;;;1.80;;
7957;SDS011;4024;52.172;5.378;2022-09-01T09:09:29;5.70;;;2.00;;
7957;SDS011;4024;52.172;5.378;2022-09-01T09:18:19;2.50;;;1.80;;
7957;SDS011;4024;52.172;5.378;2022-09-01T09:21:04;4.47;;;1.80;;
7957;SDS011;4024;52.172;5.378;2022-09-01T09:23:38;2.13;;;1.90;;
7957;SDS011;4024;52.172;5.378;2022-09-01T09:26:11;4.47;;;1.83;;
7957;SDS011;4024;52.172;5.378;2022-09-01T09:28:37;5.07;;;2.10;;
7957;SDS011;4024;52.172;5.378;2022-09-01T09:33:49;4.03;;;1.50;;
7957;SDS011;4024;52.172;5.378;2022-09-01T09:36:17;1.67;;;1.43;;
7957;SDS011;4024;52.172;5.378;2022-09-01T09:38:44;2.73;;;1.50;;
7957;SDS011;4024;52.172;5.378;2022-09-01T09:41:18;2.20;;;1.53;;
7957;SDS011;4024;52.172;5.378;2022-09-01T09:43:59;4.00;;;1.57;;
7957;SDS011;4024;52.172;5.378;2022-09-01T09:49:06;3.13;;;1.70;;
7957;SDS011;4024;52.172;5.378;2022-09-01T09:51:37;5.27;;;1.60;;
7957;SDS011;4024;52.172;5.378;2022-09-01T09:54:12;7.70;;;1.93;;
7957;SDS011;4024;52.172;5.378;2022-09-01T09:56:48;2.17;;;1.60;;
7957;SDS011;4024;52.172;5.378;2022-09-01T09:59:31;5.97;;;1.83;;
7957;SDS011;4024;52.172;5.378;2022-09-01T10:02:13;2.40;;;1.53;;
7957;SDS011;4024;52.172;5.378;2022-09-01T10:04:47;2.20;;;1.60;;
7957;SDS011;4024;52.172;5.378;2022-09-01T10:07:21;1.53;;;1.43;;
7957;SDS011;4024;52.172;5.378;2022-09-01T10:09:53;1.60;;;1.50;;
7957;SDS011;4024;52.172;5.378;2022-09-01T10:12:24;1.90;;;1.70;;
7957;SDS011;4024;52.172;5.378;2022-09-01T10:14:52;3.63;;;1.70;;
7957;SDS011;4024;52.172;5.378;2022-09-01T10:17:33;2.73;;;1.60;;
7957;SDS011;4024;52.172;5.378;2022-09-01T10:20:05;2.70;;;1.60;;
7957;SDS011;4024;52.172;5.378;2022-09-01T10:22:48;2.30;;;1.30;;
7957;SDS011;4024;52.172;5.378;2022-09-01T10:25:35;1.63;;;1.50;;
7957;SDS011;4024;52.172;5.378;2022-09-01T10:28:07;3.37;;;1.50;;
7957;SDS011;4024;52.172;5.378;2022-09-01T10:30:48;3.50;;;1.70;;
7957;SDS011;4024;52.172;5.378;2022-09-01T10:33:17;2.57;;;1.37;;
7957;SDS011;4024;52.172;5.378;2022-09-01T10:35:45;1.97;;;1.40;;
7957;SDS011;4024;52.172;5.378;2022-09-01T10:38:16;3.17;;;1.60;;
7957;SDS011;4024;52.172;5.378;2022-09-01T10:40:46;3.50;;;1.60;;
7957;SDS011;4024;52.172;5.378;2022-09-01T10:43:26;2.57;;;1.40;;
7957;SDS011;4024;52.172;5.378;2022-09-01T10:48:56;2.30;;;1.80;;
7957;SDS011;4024;52.172;5.378;2022-09-01T10:53:51;4.70;;;1.53;;
7957;SDS011;4024;52.172;5.378;2022-09-01T10:56:21;3.47;;;1.70;;
7957;SDS011;4024;52.172;5.378;2022-09-01T11:04:19;3.53;;;1.73;;
7957;SDS011;4024;52.172;5.378;2022-09-01T11:06:59;1.80;;;1.70;;
7957;SDS011;4024;52.172;5.378;2022-09-01T11:09:36;4.20;;;1.93;;
7957;SDS011;4024;52.172;5.378;2022-09-01T11:15:03;2.03;;;1.70;;
7957;SDS011;4024;52.172;5.378;2022-09-01T11:23:26;5.33;;;1.47;;
7957;SDS011;4024;52.172;5.378;2022-09-01T11:25:58;3.93;;;1.50;;
7957;SDS011;4024;52.172;5.378;2022-09-01T11:36:23;3.13;;;1.50;;
7957;SDS011;4024;52.172;5.378;2022-09-01T11:39:07;1.47;;;1.37;;
7957;SDS011;4024;52.172;5.378;2022-09-01T11:44:27;2.03;;;1.50;;
7957;SDS011;4024;52.172;5.378;2022-09-01T11:47:06;1.80;;;1.43;;
7957;SDS011;4024;52.172;5.378;2022-09-01T11:49:39;2.47;;;1.43;;
7957;SDS011;4024;52.172;5.378;2022-09-01T11:52:14;3.40;;;1.97;;
7957;SDS011;4024;52.172;5.378;2022-09-01T11:54:42;1.63;;;1.50;;
7957;SDS011;4024;52.172;5.378;2022-09-01T11:57:21;2.07;;;1.23;;
7957;SDS011;4024;52.172;5.378;2022-09-01T12:00:15;2.73;;;1.60;;
7957;SDS011;4024;52.172;5.378;2022-09-01T12:02:51;1.53;;;1.43;;
7957;SDS011;4024;52.172;5.378;2022-09-01T12:05:27;2.37;;;1.60;;
7957;SDS011;4024;52.172;5.378;2022-09-01T12:07:56;1.67;;;1.30;;
7957;SDS011;4024;52.172;5.378;2022-09-01T12:12:58;2.00;;;1.60;;
7957;SDS011;4024;52.172;5.378;2022-09-01T12:15:42;1.40;;;1.30;;
7957;SDS011;4024;52.172;5.378;2022-09-01T12:18:21;1.60;;;1.50;;
7957;SDS011;4024;52.172;5.378;2022-09-01T12:20:48;1.83;;;1.40;;
7957;SDS011;4024;52.172;5.378;2022-09-01T12:23:31;1.83;;;1.50;;
7957;SDS011;4024;52.172;5.378;2022-09-01T12:26:05;1.67;;;1.50;;
7957;SDS011;4024;52.172;5.378;2022-09-01T12:28:35;2.70;;;1.70;;
7957;SDS011;4024;52.172;5.378;2022-09-01T12:31:06;1.93;;;1.60;;
7957;SDS011;4024;52.172;5.378;2022-09-01T12:33:43;5.07;;;1.80;;
7957;SDS011;4024;52.172;5.378;2022-09-01T12:36:12;1.40;;;1.30;;
7957;SDS011;4024;52.172;5.378;2022-09-01T12:38:37;1.83;;;1.60;;
7957;SDS011;4024;52.172;5.378;2022-09-01T12:41:03;3.80;;;1.60;;
7957;SDS011;4024;52.172;5.378;2022-09-01T12:46:51;5.43;;;1.80;;
7957;SDS011;4024;52.172;5.378;2022-09-01T12:49:18;1.53;;;1.43;;
7957;SDS011;4024;52.172;5.378;2022-09-01T12:57:29;2.47;;;1.47;;
7957;SDS011;4024;52.172;5.378;2022-09-01T13:02:43;1.60;;;1.50;;
7957;SDS011;4024;52.172;5.378;2022-09-01T13:05:33;3.77;;;1.63;;
7957;SDS011;4024;52.172;5.378;2022-09-01T13:08:09;2.73;;;1.63;;
7957;SDS011;4024;52.172;5.378;2022-09-01T13:10:38;3.57;;;1.60;;
7957;SDS011;4024;52.172;5.378;2022-09-01T13:13:09;3.10;;;1.57;;
7957;SDS011;4024;52.172;5.378;2022-09-01T13:15:37;1.90;;;1.40;;
7957;SDS011;4024;52.172;5.378;2022-09-01T13:18:07;1.60;;;1.50;;
7957;SDS011;4024;52.172;5.378;2022-09-01T13:20:33;1.87;;;1.60;;
7957;SDS011;4024;52.172;5.378;2022-09-01T13:22:59;3.70;;;1.77;;
7957;SDS011;4024;52.172;5.378;2022-09-01T13:25:25;1.70;;;1.60;;
7957;SDS011;4024;52.172;5.378;2022-09-01T13:27:51;2.10;;;1.60;;
7957;SDS011;4024;52.172;5.378;2022-09-01T13:30:19;3.37;;;1.70;;
7957;SDS011;4024;52.172;5.378;2022-09-01T13:32:47;3.07;;;1.50;;
7957;SDS011;4024;52.172;5.378;2022-09-01T13:35:15;2.40;;;1.60;;
7957;SDS011;4024;52.172;5.378;2022-09-01T13:37:44;2.40;;;1.43;;
7957;SDS011;4024;52.172;5.378;2022-09-01T13:40:10;2.93;;;1.40;;
7957;SDS011;4024;52.172;5.378;2022-09-01T13:42:39;3.07;;;1.67;;
7957;SDS011;4024;52.172;5.378;2022-09-01T13:45:06;3.50;;;1.40;;
7957;SDS011;4024;52.172;5.378;2022-09-01T13:47:32;2.13;;;1.67;;
7957;SDS011;4024;52.172;5.378;2022-09-01T13:49:58;2.63;;;1.70;;
7957;SDS011;4024;52.172;5.378;2022-09-01T13:52:24;1.83;;;1.50;;
7957;SDS011;4024;52.172;5.378;2022-09-01T13:54:50;2.73;;;1.57;;
7957;SDS011;4024;52.172;5.378;2022-09-01T13:57:15;1.57;;;1.47;;
7957;SDS011;4024;52.172;5.378;2022-09-01T13:59:41;4.70;;;1.87;;
7957;SDS011;4024;52.172;5.378;2022-09-01T14:02:08;4.53;;;1.50;;
7957;SDS011;4024;52.172;5.378;2022-09-01T14:04:34;2.63;;;1.60;;
7957;SDS011;4024;52.172;5.378;2022-09-01T14:07:00;2.10;;;1.67;;
7957;SDS011;4024;52.172;5.378;2022-09-01T14:09:26;2.10;;;1.73;;
7957;SDS011;4024;52.172;5.378;2022-09-01T14:11:54;2.50;;;1.67;;
7957;SDS011;4024;52.172;5.378;2022-09-01T14:14:20;2.20;;;1.67;;
7957;SDS011;4024;52.172;5.378;2022-09-01T14:16:46;4.30;;;1.90;;
7957;SDS011;4024;52.172;5.378;2022-09-01T14:19:13;2.00;;;1.47;;
7957;SDS011;4024;52.172;5.378;2022-09-01T14:21:39;1.80;;;1.60;;
7957;SDS011;4024;52.172;5.378;2022-09-01T14:24:05;1.73;;;1.60;;
7957;SDS011;4024;52.172;5.378;2022-09-01T14:26:31;2.43;;;1.40;;
7957;SDS011;4024;52.172;5.378;2022-09-01T14:28:57;2.70;;;1.50;;
7957;SDS011;4024;52.172;5.378;2022-09-01T14:31:26;2.93;;;1.80;;
7957;SDS011;4024;52.172;5.378;2022-09-01T14:33:53;2.60;;;1.63;;
7957;SDS011;4024;52.172;5.378;2022-09-01T14:36:23;3.97;;;1.50;;
7957;SDS011;4024;52.172;5.378;2022-09-01T14:38:51;1.80;;;1.40;;
7957;SDS011;4024;52.172;5.378;2022-09-01T14:41:18;5.47;;;1.60;;
7957;SDS011;4024;52.172;5.378;2022-09-01T14:43:48;2.50;;;1.60;;
7957;SDS011;4024;52.172;5.378;2022-09-01T14:46:17;4.47;;;1.60;;
7957;SDS011;4024;52.172;5.378;2022-09-01T14:48:44;1.40;;;1.30;;
7957;SDS011;4024;52.172;5.378;2022-09-01T14:51:18;3.43;;;1.77;;
7957;SDS011;4024;52.172;5.378;2022-09-01T14:53:49;1.77;;;1.47;;
7957;SDS011;4024;52.172;5.378;2022-09-01T14:56:16;2.53;;;1.60;;
7957;SDS011;4024;52.172;5.378;2022-09-01T14:58:43;6.10;;;2.67;;
7957;SDS011;4024;52.172;5.378;2022-09-01T15:01:14;6.80;;;1.90;;
7957;SDS011;4024;52.172;5.378;2022-09-01T15:03:41;2.83;;;1.57;;
7957;SDS011;4024;52.172;5.378;2022-09-01T15:06:11;4.07;;;1.80;;
7957;SDS011;4024;52.172;5.378;2022-09-01T15:08:38;6.67;;;1.80;;
7957;SDS011;4024;52.172;5.378;2022-09-01T15:11:17;3.13;;;1.70;;
7957;SDS011;4024;52.172;5.378;2022-09-01T15:13:44;2.13;;;1.63;;
7957;SDS011;4024;52.172;5.378;2022-09-01T15:16:14;1.73;;;1.57;;
7957;SDS011;4024;52.172;5.378;2022-09-01T15:18:42;1.80;;;1.70;;
7957;SDS011;4024;52.172;5.378;2022-09-01T15:21:19;1.90;;;1.70;;
7957;SDS011;4024;52.172;5.378;2022-09-01T15:23:53;1.80;;;1.47;;
7957;SDS011;4024;52.172;5.378;2022-09-01T15:26:19;5.50;;;1.90;;
7957;SDS011;4024;52.172;5.378;2022-09-01T15:28:46;3.13;;;1.60;;
7957;SDS011;4024;52.172;5.378;2022-09-01T15:31:13;2.53;;;1.60;;
7957;SDS011;4024;52.172;5.378;2022-09-01T15:33:41;3.13;;;1.80;;
7957;SDS011;4024;52.172;5.378;2022-09-01T15:36:08;1.70;;;1.60;;
7957;SDS011;4024;52.172;5.378;2022-09-01T15:38:40;1.70;;;1.60;;
7957;SDS011;4024;52.172;5.378;2022-09-01T15:41:06;5.70;;;1.73;;
7957;SDS011;4024;52.172;5.378;2022-09-01T15:43:31;1.67;;;1.57;;
7957;SDS011;4024;52.172;5.378;2022-09-01T15:45:58;2.67;;;1.60;;
7957;SDS011;4024;52.172;5.378;2022-09-01T15:48:26;3.23;;;1.93;;
7957;SDS011;4024;52.172;5.378;2022-09-01T15:50:52;4.70;;;1.80;;
7957;SDS011;4024;52.172;5.378;2022-09-01T15:53:39;3.83;;;1.90;;
7957;SDS011;4024;52.172;5.378;2022-09-01T15:56:05;4.47;;;1.50;;
7957;SDS011;4024;52.172;5.378;2022-09-01T15:58:31;3.47;;;1.70;;
7957;SDS011;4024;52.172;5.378;2022-09-01T16:00:59;3.37;;;1.70;;
7957;SDS011;4024;52.172;5.378;2022-09-01T16:03:24;2.43;;;1.70;;
7957;SDS011;4024;52.172;5.378;2022-09-01T16:05:50;2.90;;;1.83;;
7957;SDS011;4024;52.172;5.378;2022-09-01T16:08:15;4.13;;;1.80;;
7957;SDS011;4024;52.172;5.378;2022-09-01T16:10:41;2.20;;;1.50;;
7957;SDS011;4024;52.172;5.378;2022-09-01T16:13:07;2.23;;;1.83;;
7957;SDS011;4024;52.172;5.378;2022-09-01T16:15:36;2.80;;;1.67;;
7957;SDS011;4024;52.172;5.378;2022-09-01T16:21:21;1.90;;;1.70;;
7957;SDS011;4024;52.172;5.378;2022-09-01T16:23:57;1.97;;;1.50;;
7957;SDS011;4024;52.172;5.378;2022-09-01T16:26:29;2.33;;;1.70;;
7957;SDS011;4024;52.172;5.378;2022-09-01T16:28:57;4.03;;;1.80;;
7957;SDS011;4024;52.172;5.378;2022-09-01T16:31:25;1.90;;;1.70;;
7957;SDS011;4024;52.172;5.378;2022-09-01T16:33:54;3.57;;;1.67;;
7957;SDS011;4024;52.172;5.378;2022-09-01T16:36:31;3.83;;;1.70;;
7957;SDS011;4024;52.172;5.378;2022-09-01T16:42:05;2.97;;;1.70;;
7957;SDS011;4024;52.172;5.378;2022-09-01T16:44:55;6.83;;;1.60;;
7957;SDS011;4024;52.172;5.378;2022-09-01T16:52:53;2.27;;;1.50;;